createdAt,value
2018-03-11T00:01:02.607Z,99.99
2018-03-11T00:02:02.548Z,99.99
2018-03-11T00:03:54.309Z,99.99
2018-03-11T00:04:54.232Z,99.99
2018-03-11T00:06:45.985Z,99.99
2018-03-11T00:07:45.910Z,99.99
2018-03-11T00:09:37.667Z,99.99
2018-03-11T00:10:37.592Z,99.99
2018-03-11T00:12:29.340Z,99.99
2018-03-11T00:13:29.293Z,99.99
2018-03-11T00:15:21.035Z,99.99
2018-03-11T00:16:20.956Z,99.99
2018-03-11T00:18:12.704Z,99.99
2018-03-11T00:19:12.640Z,99.99
2018-03-11T00:21:04.412Z,99.99
2018-03-11T00:22:04.333Z,99.99
2018-03-11T00:23:56.131Z,99.99
2018-03-11T00:24:56.052Z,99.99
2018-03-11T00:26:47.820Z,99.99
2018-03-11T00:27:47.759Z,99.99
2018-03-11T00:29:39.515Z,99.99
2018-03-11T00:30:39.442Z,99.99
2018-03-11T00:32:31.238Z,99.99
2018-03-11T00:33:31.176Z,99.99
2018-03-11T00:35:22.995Z,99.99
2018-03-11T00:36:22.927Z,99.99
2018-03-11T00:38:14.682Z,99.99
2018-03-11T00:39:14.633Z,99.99
2018-03-11T00:41:06.423Z,99.99
2018-03-11T00:42:06.344Z,99.99
2018-03-11T00:43:58.198Z,99.99
2018-03-11T00:44:58.131Z,99.99
2018-03-11T00:46:49.933Z,99.99
2018-03-11T00:47:49.857Z,99.99
2018-03-11T00:49:41.650Z,99.99
2018-03-11T00:50:41.569Z,99.99
2018-03-11T00:52:33.342Z,99.99
2018-03-11T00:53:33.253Z,99.99
2018-03-11T00:55:25.004Z,99.99
2018-03-11T00:56:24.961Z,99.99
2018-03-11T00:58:16.714Z,99.99
2018-03-11T00:59:16.640Z,99.99
2018-03-11T01:01:08.463Z,99.99
2018-03-11T01:02:08.385Z,99.99
2018-03-11T01:04:00.167Z,99.99
2018-03-11T01:05:00.102Z,99.99
2018-03-11T01:06:51.915Z,99.99
2018-03-11T01:07:51.834Z,99.99
2018-03-11T01:09:43.596Z,99.99
2018-03-11T01:10:43.534Z,99.99
2018-03-11T01:12:35.288Z,99.99
2018-03-11T01:13:35.213Z,99.99
2018-03-11T01:15:26.973Z,99.99
2018-03-11T01:16:26.902Z,99.99
2018-03-11T01:18:18.657Z,99.99
2018-03-11T01:19:18.585Z,99.99
2018-03-11T01:21:10.319Z,99.99
2018-03-11T01:22:10.261Z,99.99
2018-03-11T01:24:02.039Z,99.99
2018-03-11T01:25:01.991Z,99.99
2018-03-11T01:26:53.716Z,99.99
2018-03-11T01:27:53.647Z,99.99
2018-03-11T01:29:45.409Z,99.99
2018-03-11T01:30:45.332Z,99.99
2018-03-11T01:32:37.129Z,99.99
2018-03-11T01:33:37.056Z,99.99
2018-03-11T01:35:28.816Z,99.99
2018-03-11T01:36:28.741Z,99.99
2018-03-11T01:38:20.505Z,99.99
2018-03-11T01:39:20.432Z,99.99
2018-03-11T01:41:12.241Z,99.99
2018-03-11T01:42:12.116Z,99.99
2018-03-11T01:44:03.873Z,99.99
2018-03-11T01:45:03.794Z,99.99
2018-03-11T01:46:55.554Z,99.99
2018-03-11T01:47:55.489Z,99.99
2018-03-11T01:49:47.295Z,99.99
2018-03-11T01:50:47.215Z,99.99
2018-03-11T01:52:38.967Z,99.99
2018-03-11T01:53:38.891Z,99.99
2018-03-11T01:55:30.668Z,99.99
2018-03-11T01:56:30.590Z,99.99
2018-03-11T01:58:22.383Z,99.99
2018-03-11T01:59:22.298Z,99.99
2018-03-11T02:01:14.034Z,99.99
2018-03-11T02:02:13.967Z,99.99
2018-03-11T02:04:05.755Z,99.99
2018-03-11T02:05:05.671Z,99.99
2018-03-11T02:06:57.428Z,99.99
2018-03-11T02:07:57.362Z,99.99
2018-03-11T02:09:49.120Z,99.99
2018-03-11T02:10:49.049Z,99.99
2018-03-11T02:12:40.787Z,99.99
2018-03-11T02:13:40.723Z,99.99
2018-03-11T02:15:32.498Z,99.99
2018-03-11T02:16:32.411Z,99.99
2018-03-11T02:18:24.206Z,99.99
2018-03-11T02:19:24.137Z,99.99
2018-03-11T02:21:15.903Z,99.99
2018-03-11T02:22:15.817Z,99.99
2018-03-11T02:24:07.567Z,99.99
2018-03-11T02:25:07.500Z,99.99
2018-03-11T02:26:59.267Z,99.99
2018-03-11T02:27:59.184Z,99.99
2018-03-11T02:29:50.954Z,99.99
2018-03-11T02:30:50.885Z,99.99
2018-03-11T02:32:42.677Z,99.99
2018-03-11T02:33:42.557Z,99.99
2018-03-11T02:35:34.428Z,99.99
2018-03-11T02:36:34.322Z,99.99
2018-03-11T02:38:26.076Z,99.99
2018-03-11T02:39:26.008Z,99.99
2018-03-11T02:41:17.812Z,99.99
2018-03-11T02:42:17.732Z,99.99
2018-03-11T02:44:09.477Z,99.99
2018-03-11T02:45:09.407Z,99.99
2018-03-11T02:47:01.212Z,99.99
2018-03-11T02:48:01.095Z,99.99
2018-03-11T02:49:52.858Z,99.99
2018-03-11T02:50:52.795Z,99.99
2018-03-11T02:52:44.565Z,99.99
2018-03-11T02:53:44.485Z,99.99
2018-03-11T02:55:36.220Z,99.99
2018-03-11T02:58:27.913Z,99.99
2018-03-11T02:59:27.833Z,99.99
2018-03-11T03:01:19.619Z,99.99
2018-03-11T03:02:19.507Z,99.99
2018-03-11T03:04:11.315Z,99.99
2018-03-11T03:05:11.249Z,99.99
2018-03-11T03:07:03.000Z,99.99
2018-03-11T03:08:02.926Z,99.99
2018-03-11T03:09:54.674Z,99.99
2018-03-11T03:10:54.613Z,99.99
2018-03-11T03:12:46.516Z,99.99
2018-03-11T03:13:46.407Z,99.99
2018-03-11T03:15:38.132Z,99.99
2018-03-11T03:16:38.068Z,99.99
2018-03-11T03:18:29.828Z,99.99
2018-03-11T03:19:29.748Z,99.99
2018-03-11T03:21:21.503Z,99.99
2018-03-11T03:22:21.435Z,99.99
2018-03-11T03:24:13.195Z,99.99
2018-03-11T03:25:13.121Z,99.99
2018-03-11T03:27:04.882Z,99.99
2018-03-11T03:28:04.818Z,99.99
2018-03-11T03:29:56.563Z,99.99
2018-03-11T03:30:56.502Z,99.99
2018-03-11T03:32:48.285Z,99.99
2018-03-11T03:33:48.216Z,99.99
2018-03-11T03:35:39.978Z,99.99
2018-03-11T03:36:39.967Z,99.99
2018-03-11T03:38:31.686Z,99.99
2018-03-11T03:39:31.605Z,99.99
2018-03-11T03:41:23.413Z,99.99
2018-03-11T03:42:23.316Z,99.99
2018-03-11T03:44:15.079Z,99.99
2018-03-11T03:45:15.007Z,99.99
2018-03-11T03:47:06.845Z,99.99
2018-03-11T03:48:06.780Z,99.99
2018-03-11T03:49:58.631Z,99.99
2018-03-11T03:50:58.562Z,99.99
2018-03-11T03:52:50.324Z,99.99
2018-03-11T03:53:50.228Z,99.99
2018-03-11T03:55:41.979Z,99.99
2018-03-11T03:56:41.902Z,99.99
2018-03-11T03:58:33.674Z,99.99
2018-03-11T03:59:33.603Z,99.99
2018-03-11T04:01:25.371Z,99.99
2018-03-11T04:02:25.288Z,99.99
2018-03-11T04:04:17.037Z,99.99
2018-03-11T04:05:16.982Z,99.99
2018-03-11T04:07:08.723Z,99.99
2018-03-11T04:08:08.648Z,99.99
2018-03-11T04:10:00.538Z,99.99
2018-03-11T04:11:00.461Z,99.99
2018-03-11T04:12:52.243Z,99.99
2018-03-11T04:13:52.188Z,99.99
2018-03-11T04:15:43.951Z,99.99
2018-03-11T04:16:43.874Z,99.99
2018-03-11T04:18:35.599Z,99.99
2018-03-11T04:19:35.533Z,99.99
2018-03-11T04:21:27.298Z,99.99
2018-03-11T04:22:27.211Z,99.99
2018-03-11T04:24:18.957Z,99.99
2018-03-11T04:25:18.899Z,99.99
2018-03-11T04:27:10.671Z,99.99
2018-03-11T04:28:10.592Z,99.99
2018-03-11T04:30:02.397Z,99.99
2018-03-11T04:31:02.329Z,99.99
2018-03-11T04:32:54.083Z,99.99
2018-03-11T04:33:54.010Z,99.99
2018-03-11T04:35:45.820Z,99.99
2018-03-11T04:36:45.699Z,99.99
2018-03-11T04:38:37.484Z,99.99
2018-03-11T04:39:37.404Z,99.99
2018-03-11T04:41:29.256Z,99.99
2018-03-11T04:42:29.141Z,99.99
2018-03-11T04:44:20.874Z,99.99
2018-03-11T04:45:20.897Z,99.99
2018-03-11T04:47:12.543Z,99.99
2018-03-11T04:48:12.485Z,99.99
2018-03-11T04:50:04.204Z,99.99
2018-03-11T04:51:04.134Z,99.99
2018-03-11T04:52:56.045Z,99.99
2018-03-11T04:53:55.951Z,99.99
2018-03-11T04:55:47.810Z,99.99
2018-03-11T04:56:47.742Z,99.99
2018-03-11T04:58:39.503Z,99.99
2018-03-11T04:59:39.427Z,99.99
2018-03-11T05:01:31.309Z,99.99
2018-03-11T05:02:31.106Z,99.99
2018-03-11T05:04:22.899Z,99.99
2018-03-11T05:05:22.812Z,99.99
2018-03-11T05:07:14.552Z,99.99
2018-03-11T05:08:14.488Z,99.99
2018-03-11T05:10:06.290Z,99.99
2018-03-11T05:11:06.208Z,99.99
2018-03-11T05:12:57.971Z,99.99
2018-03-11T05:13:57.912Z,99.99
2018-03-11T05:15:49.661Z,99.99
2018-03-11T05:16:49.611Z,99.99
2018-03-11T05:18:41.325Z,99.99
2018-03-11T05:19:41.299Z,99.99
2018-03-11T05:21:33.057Z,99.99
2018-03-11T05:22:32.980Z,99.99
2018-03-11T05:24:24.888Z,99.99
2018-03-11T05:25:24.727Z,99.99
2018-03-11T05:27:16.449Z,99.99
2018-03-11T05:28:16.389Z,99.99
2018-03-11T05:30:08.292Z,99.99
2018-03-11T05:31:08.073Z,99.99
2018-03-11T05:32:59.857Z,99.99
2018-03-11T05:33:59.768Z,99.99
2018-03-11T05:35:51.574Z,99.99
2018-03-11T05:36:51.494Z,99.99
2018-03-11T05:38:43.235Z,99.99
2018-03-11T05:39:43.168Z,99.99
2018-03-11T05:41:35.017Z,99.99
2018-03-11T05:42:34.894Z,99.99
2018-03-11T05:44:26.659Z,99.99
2018-03-11T05:45:26.577Z,99.99
2018-03-11T05:47:18.395Z,99.99
2018-03-11T05:48:18.323Z,99.99
2018-03-11T05:50:10.072Z,99.99
2018-03-11T05:51:10.010Z,99.99
2018-03-11T05:53:01.763Z,99.99
2018-03-11T05:54:01.684Z,99.99
2018-03-11T05:55:53.429Z,99.99
2018-03-11T05:56:53.359Z,99.99
2018-03-11T05:58:45.138Z,99.99
2018-03-11T05:59:45.045Z,99.99
2018-03-11T06:01:36.771Z,99.99
2018-03-11T06:02:36.738Z,99.99
2018-03-11T06:04:28.460Z,99.99
2018-03-11T06:05:28.382Z,99.99
2018-03-11T06:07:20.123Z,99.99
2018-03-11T06:08:20.059Z,99.99
2018-03-11T06:10:11.955Z,99.99
2018-03-11T06:11:11.743Z,99.99
2018-03-11T06:13:03.512Z,99.99
2018-03-11T06:14:03.438Z,99.99
2018-03-11T06:15:55.227Z,99.99
2018-03-11T06:16:55.206Z,99.99
2018-03-11T06:18:46.938Z,99.99
2018-03-11T06:19:46.863Z,99.99
2018-03-11T06:21:38.629Z,99.99
2018-03-11T06:22:38.568Z,99.99
2018-03-11T06:24:30.363Z,99.99
2018-03-11T06:25:30.280Z,99.99
2018-03-11T06:27:22.028Z,99.99
2018-03-11T06:28:21.967Z,99.99
2018-03-11T06:30:13.718Z,99.99
2018-03-11T06:31:13.692Z,99.99
2018-03-11T06:33:05.413Z,99.99
2018-03-11T06:34:05.339Z,99.99
2018-03-11T06:35:57.109Z,99.99
2018-03-11T06:36:57.040Z,99.99
2018-03-11T06:38:48.860Z,99.99
2018-03-11T06:39:48.816Z,99.99
2018-03-11T06:41:40.761Z,99.99
2018-03-11T06:42:40.658Z,99.99
2018-03-11T06:44:32.564Z,99.99
2018-03-11T06:45:32.363Z,99.99
2018-03-11T06:47:24.110Z,99.99
2018-03-11T06:48:24.033Z,99.99
2018-03-11T06:50:15.847Z,99.99
2018-03-11T06:51:15.769Z,99.99
2018-03-11T06:53:07.571Z,99.99
2018-03-11T06:54:07.501Z,99.99
2018-03-11T06:55:59.423Z,99.99
2018-03-11T06:56:59.371Z,99.99
2018-03-11T06:58:51.137Z,99.99
2018-03-11T06:59:51.050Z,99.99
2018-03-11T07:01:42.820Z,99.99
2018-03-11T07:02:42.772Z,99.99
2018-03-11T07:04:34.524Z,99.99
2018-03-11T07:05:34.452Z,99.99
2018-03-11T07:07:26.218Z,99.04
2018-03-11T07:08:26.153Z,96.94
2018-03-11T07:10:17.906Z,96.66
2018-03-11T07:11:17.848Z,96.27
2018-03-11T07:13:09.621Z,95.79
2018-03-11T07:14:09.594Z,96.75
2018-03-11T07:16:01.342Z,96.89
2018-03-11T07:17:01.287Z,97.08
2018-03-11T07:18:53.222Z,97.46
2018-03-11T07:19:53.198Z,97.03
2018-03-11T07:21:44.930Z,95.61
2018-03-11T07:22:44.859Z,95.70
2018-03-11T07:24:36.667Z,95.79
2018-03-11T07:25:36.609Z,95.32
2018-03-11T07:27:28.420Z,95.22
2018-03-11T07:28:28.354Z,95.36
2018-03-11T07:30:20.277Z,95.70
2018-03-11T07:31:20.213Z,96.08
2018-03-11T07:33:11.991Z,95.79
2018-03-11T07:34:11.981Z,95.61
2018-03-11T07:36:03.737Z,95.32
2018-03-11T07:37:03.651Z,95.51
2018-03-11T07:38:55.446Z,95.51
2018-03-11T07:39:55.375Z,96.41
2018-03-11T07:41:47.152Z,96.32
2018-03-11T07:42:47.095Z,96.51
2018-03-11T07:44:38.896Z,96.46
2018-03-11T07:45:38.830Z,96.41
2018-03-11T07:47:30.630Z,95.22
2018-03-11T07:48:30.570Z,95.32
2018-03-11T07:50:22.347Z,94.46
2018-03-11T07:51:22.279Z,94.36
2018-03-11T07:53:14.062Z,93.84
2018-03-11T07:54:14.005Z,93.36
2018-03-11T07:56:05.859Z,92.16
2018-03-11T07:57:05.786Z,90.30
2018-03-11T07:58:57.564Z,89.20
2018-03-11T07:59:57.524Z,88.87
2018-03-11T08:01:49.302Z,88.43
2018-03-11T08:02:49.232Z,87.52
2018-03-11T08:04:41.187Z,85.69
2018-03-11T08:05:41.117Z,83.92
2018-03-11T08:07:32.934Z,80.70
2018-03-11T08:08:32.899Z,78.34
2018-03-11T08:10:24.829Z,76.56
2018-03-11T08:11:24.594Z,75.63
2018-03-11T08:13:17.405Z,74.64
2018-03-11T08:14:17.332Z,75.98
2018-03-11T08:16:09.153Z,76.56
2018-03-11T08:17:09.070Z,75.54
2018-03-11T08:19:00.920Z,73.75
2018-03-11T08:20:00.873Z,72.69
2018-03-11T08:21:52.707Z,72.44
2018-03-11T08:22:52.643Z,71.58
2018-03-11T08:24:44.439Z,72.60
2018-03-11T08:25:44.389Z,73.75
2018-03-11T08:27:36.212Z,74.39
2018-03-11T08:28:36.148Z,75.89
2018-03-11T08:30:27.925Z,75.70
2018-03-11T08:31:27.876Z,75.98
2018-03-11T08:33:19.698Z,77.09
2018-03-11T08:34:19.637Z,78.53
2018-03-11T08:36:11.440Z,79.11
2018-03-11T08:37:11.387Z,77.95
2018-03-11T08:39:03.214Z,78.25
2018-03-11T08:40:03.155Z,77.86
2018-03-11T08:41:55.026Z,77.67
2018-03-11T08:42:55.073Z,76.90
2018-03-11T08:44:47.019Z,77.33
2018-03-11T08:45:47.049Z,76.17
2018-03-11T08:47:38.799Z,76.07
2018-03-11T08:48:38.751Z,76.37
2018-03-11T08:50:30.630Z,77.23
2018-03-11T08:51:30.566Z,76.07
2018-03-11T08:53:22.490Z,76.75
2018-03-11T08:54:22.301Z,75.73
2018-03-11T08:56:14.072Z,76.84
2018-03-11T08:57:14.028Z,75.79
2018-03-11T08:59:05.880Z,77.61
2018-03-11T09:00:05.763Z,75.89
2018-03-11T09:01:57.682Z,75.63
2018-03-11T09:02:57.628Z,75.45
2018-03-11T09:04:49.425Z,74.96
2018-03-11T09:05:49.367Z,74.19
2018-03-11T09:07:41.133Z,74.87
2018-03-11T09:08:41.087Z,73.81
2018-03-11T09:10:32.966Z,75.45
2018-03-11T09:11:32.836Z,74.48
2018-03-11T09:13:24.623Z,73.94
2018-03-11T09:14:24.646Z,73.79
2018-03-11T09:16:16.511Z,73.27
2018-03-11T09:17:16.454Z,73.46
2018-03-11T09:19:08.904Z,73.18
2018-03-11T09:20:08.265Z,73.75
2018-03-11T09:22:00.180Z,73.46
2018-03-11T09:23:00.132Z,74.68
2018-03-11T09:24:52.127Z,73.66
2018-03-11T09:25:52.077Z,73.94
2018-03-11T09:27:45.135Z,72.79
2018-03-11T09:28:44.264Z,73.50
2018-03-11T09:30:37.168Z,72.41
2018-03-11T09:31:37.068Z,72.06
2018-03-11T09:33:28.843Z,73.66
2018-03-11T09:34:28.813Z,72.54
2018-03-11T09:36:20.879Z,70.56
2018-03-11T09:37:20.800Z,71.04
2018-03-11T09:39:12.912Z,73.88
2018-03-11T09:40:12.836Z,73.75
2018-03-11T09:42:06.222Z,73.75
2018-03-11T09:43:05.526Z,72.73
2018-03-11T09:44:57.670Z,73.69
2018-03-11T09:45:57.661Z,71.14
2018-03-11T09:47:49.928Z,71.83
2018-03-11T09:48:49.150Z,73.85
2018-03-11T09:50:41.068Z,73.98
2018-03-11T09:51:41.044Z,73.69
2018-03-11T09:53:32.999Z,73.69
2018-03-11T09:54:32.728Z,72.64
2018-03-11T09:56:26.612Z,73.02
2018-03-11T09:57:24.671Z,73.88
2018-03-11T09:59:16.539Z,74.71
2018-03-11T10:00:16.398Z,75.10
2018-03-11T10:02:08.467Z,74.81
2018-03-11T10:03:08.256Z,74.65
2018-03-11T10:05:00.004Z,74.90
2018-03-11T10:05:59.957Z,74.52
2018-03-11T10:07:52.608Z,74.43
2018-03-11T10:08:51.834Z,75.48
2018-03-11T10:10:43.762Z,75.57
2018-03-11T10:11:43.735Z,75.57
2018-03-11T10:13:36.140Z,75.87
2018-03-11T10:14:35.672Z,75.67
2018-03-11T10:16:28.650Z,75.48
2018-03-11T10:17:28.581Z,75.57
2018-03-11T10:19:20.425Z,75.96
2018-03-11T10:20:20.351Z,75.92
2018-03-11T10:22:12.230Z,75.45
2018-03-11T10:23:12.174Z,75.92
2018-03-11T10:25:04.147Z,76.12
2018-03-11T10:26:04.091Z,76.40
2018-03-11T10:27:55.941Z,75.77
2018-03-11T10:28:55.832Z,75.57
2018-03-11T10:30:47.910Z,74.71
2018-03-11T10:31:47.782Z,75.57
2018-03-11T10:33:39.658Z,75.45
2018-03-11T10:34:39.576Z,75.73
2018-03-11T10:36:31.672Z,75.82
2018-03-11T10:37:31.501Z,77.23
2018-03-11T10:39:23.401Z,77.23
2018-03-11T10:40:23.728Z,76.94
2018-03-11T10:42:15.108Z,77.26
2018-03-11T10:43:15.096Z,75.63
2018-03-11T10:45:07.064Z,75.92
2018-03-11T10:46:07.000Z,75.92
2018-03-11T10:47:58.992Z,75.57
2018-03-11T10:48:58.944Z,74.29
2018-03-11T10:50:50.792Z,74.58
2018-03-11T10:51:50.851Z,75.82
2018-03-11T10:53:42.629Z,75.48
2018-03-11T10:54:42.574Z,75.00
2018-03-11T10:56:34.560Z,75.92
2018-03-11T10:57:34.378Z,77.04
2018-03-11T10:59:27.268Z,77.51
2018-03-11T11:00:27.200Z,76.94
2018-03-11T11:02:19.194Z,76.79
2018-03-11T11:03:19.159Z,76.98
2018-03-11T11:05:11.039Z,75.38
2018-03-11T11:06:11.031Z,75.54
2018-03-11T11:08:02.886Z,75.48
2018-03-11T11:09:02.874Z,75.63
2018-03-11T11:10:54.793Z,73.56
2018-03-11T11:11:54.572Z,74.43
2018-03-11T11:13:46.360Z,73.56
2018-03-11T11:14:46.415Z,73.88
2018-03-11T11:16:38.132Z,73.21
2018-03-11T11:17:38.053Z,73.60
2018-03-11T11:19:29.975Z,73.11
2018-03-11T11:20:29.787Z,73.75
2018-03-11T11:22:22.784Z,75.79
2018-03-11T11:23:22.786Z,77.33
2018-03-11T11:25:14.662Z,77.13
2018-03-11T11:26:14.597Z,77.51
2018-03-11T11:28:06.447Z,77.80
2018-03-11T11:29:06.396Z,78.38
2018-03-11T11:30:58.292Z,78.77
2018-03-11T11:31:58.513Z,79.30
2018-03-11T11:33:51.078Z,80.07
2018-03-11T11:34:50.965Z,79.01
2018-03-11T11:36:43.865Z,78.82
2018-03-11T11:37:43.689Z,79.11
2018-03-11T11:39:35.545Z,79.21
2018-03-11T11:40:35.537Z,79.74
2018-03-11T11:42:28.325Z,79.59
2018-03-11T11:43:28.241Z,79.68
2018-03-11T11:45:21.038Z,79.21
2018-03-11T11:46:20.982Z,80.45
2018-03-11T11:48:13.377Z,80.70
2018-03-11T11:49:12.773Z,80.12
2018-03-11T11:51:04.617Z,80.41
2018-03-11T11:52:04.566Z,81.08
2018-03-11T11:53:57.386Z,80.89
2018-03-11T11:54:57.309Z,81.66
2018-03-11T11:56:49.150Z,80.51
2018-03-11T11:57:49.057Z,80.79
2018-03-11T11:59:40.880Z,80.79
2018-03-11T12:00:40.861Z,81.04
2018-03-11T12:02:33.741Z,81.62
2018-03-11T12:03:33.674Z,81.71
2018-03-11T12:05:25.590Z,81.90
2018-03-11T12:06:25.583Z,82.48
2018-03-11T12:08:17.375Z,82.09
2018-03-11T12:09:17.238Z,82.76
2018-03-11T12:11:09.148Z,82.86
2018-03-11T12:12:09.048Z,82.96
2018-03-11T12:14:00.802Z,81.71
2018-03-11T12:15:00.749Z,81.27
2018-03-11T12:16:52.561Z,79.93
2018-03-11T12:17:52.578Z,79.93
2018-03-11T12:19:44.661Z,80.32
2018-03-11T12:20:44.496Z,80.03
2018-03-11T12:22:36.623Z,80.76
2018-03-11T12:23:36.442Z,81.27
2018-03-11T12:25:28.383Z,81.33
2018-03-11T12:26:28.331Z,81.43
2018-03-11T12:28:20.124Z,82.09
2018-03-11T12:29:20.067Z,82.00
2018-03-11T12:31:12.005Z,82.09
2018-03-11T12:32:11.846Z,81.81
2018-03-11T12:34:04.714Z,81.62
2018-03-11T12:35:04.653Z,82.43
2018-03-11T12:36:57.143Z,83.49
2018-03-11T12:37:56.434Z,82.53
2018-03-11T12:39:48.279Z,82.63
2018-03-11T12:40:48.208Z,82.43
2018-03-11T12:42:40.037Z,82.48
2018-03-11T12:43:40.181Z,82.09
2018-03-11T12:45:31.941Z,81.62
2018-03-11T12:46:31.730Z,81.52
2018-03-11T12:48:23.650Z,81.71
2018-03-11T12:49:23.464Z,80.94
2018-03-11T12:51:16.234Z,81.04
2018-03-11T12:52:16.164Z,80.76
2018-03-11T12:54:07.929Z,80.56
2018-03-11T12:55:07.869Z,80.94
2018-03-11T12:56:59.631Z,81.96
2018-03-11T12:57:59.595Z,82.53
2018-03-11T12:59:51.407Z,82.76
2018-03-11T13:00:51.337Z,82.67
2018-03-11T13:02:43.125Z,81.90
2018-03-11T13:03:43.081Z,81.90
2018-03-11T13:05:35.036Z,81.90
2018-03-11T13:06:34.773Z,82.00
2018-03-11T13:08:26.547Z,81.90
2018-03-11T13:09:26.494Z,82.00
2018-03-11T13:11:18.423Z,82.38
2018-03-11T13:12:18.397Z,82.38
2018-03-11T13:14:11.221Z,82.09
2018-03-11T13:15:11.092Z,81.43
2018-03-11T13:17:02.909Z,81.43
2018-03-11T13:18:02.824Z,81.27
2018-03-11T13:19:54.686Z,81.62
2018-03-11T13:20:54.620Z,81.52
2018-03-11T13:22:46.497Z,81.52
2018-03-11T13:23:46.423Z,82.00
2018-03-11T13:25:39.268Z,82.67
2018-03-11T13:26:39.218Z,82.38
2018-03-11T13:28:31.139Z,82.09
2018-03-11T13:29:31.076Z,81.52
2018-03-11T13:31:22.878Z,80.99
2018-03-11T13:32:22.798Z,80.89
2018-03-11T13:34:15.641Z,81.08
2018-03-11T13:35:15.519Z,80.99
2018-03-11T13:37:07.313Z,80.51
2018-03-11T13:38:07.232Z,80.70
2018-03-11T13:39:59.122Z,81.81
2018-03-11T13:40:59.093Z,82.00
2018-03-11T13:42:50.865Z,81.81
2018-03-11T13:43:50.769Z,82.42
2018-03-11T13:45:42.582Z,81.37
2018-03-11T13:46:42.498Z,81.18
2018-03-11T13:48:34.321Z,81.66
2018-03-11T13:49:34.214Z,81.52
2018-03-11T13:51:25.978Z,82.38
2018-03-11T13:52:25.929Z,81.90
2018-03-11T13:54:17.761Z,82.86
2018-03-11T13:55:17.701Z,82.19
2018-03-11T13:57:09.448Z,82.76
2018-03-11T13:58:09.384Z,82.32
2018-03-11T14:00:01.185Z,81.66
2018-03-11T14:01:01.109Z,81.37
2018-03-11T14:02:52.889Z,81.27
2018-03-11T14:03:52.846Z,81.18
2018-03-11T14:05:44.583Z,81.37
2018-03-11T14:06:44.533Z,81.37
2018-03-11T14:08:36.573Z,80.64
2018-03-11T14:09:36.430Z,79.97
2018-03-11T14:11:28.148Z,80.03
2018-03-11T14:12:28.049Z,80.45
2018-03-11T14:14:19.965Z,80.07
2018-03-11T14:15:19.876Z,80.35
2018-03-11T14:17:11.836Z,79.88
2018-03-11T14:18:11.781Z,79.30
2018-03-11T14:20:03.730Z,79.30
2018-03-11T14:21:03.615Z,79.30
2018-03-11T14:22:55.477Z,79.39
2018-03-11T14:23:55.411Z,79.59
2018-03-11T14:25:47.268Z,80.07
2018-03-11T14:26:47.190Z,79.88
2018-03-11T14:28:39.177Z,79.78
2018-03-11T14:29:39.048Z,79.49
2018-03-11T14:31:30.888Z,79.49
2018-03-11T14:32:30.817Z,79.39
2018-03-11T14:34:22.597Z,79.11
2018-03-11T14:35:22.501Z,79.59
2018-03-11T14:37:14.394Z,79.68
2018-03-11T14:38:14.251Z,79.88
2018-03-11T14:40:06.029Z,79.78
2018-03-11T14:41:05.993Z,80.26
2018-03-11T14:42:57.845Z,79.68
2018-03-11T14:43:57.721Z,79.68
2018-03-11T14:45:49.639Z,80.16
2018-03-11T14:46:49.586Z,79.97
2018-03-11T14:48:41.368Z,80.22
2018-03-11T14:49:41.283Z,79.59
2018-03-11T14:51:33.332Z,80.12
2018-03-11T14:52:33.168Z,80.16
2018-03-11T14:54:25.030Z,80.12
2018-03-11T14:55:24.967Z,79.83
2018-03-11T14:57:16.743Z,79.93
2018-03-11T14:58:16.660Z,79.49
2018-03-11T15:00:08.465Z,80.51
2018-03-11T15:01:08.400Z,80.51
2018-03-11T15:03:00.210Z,80.41
2018-03-11T15:04:00.094Z,80.41
2018-03-11T15:05:51.908Z,80.12
2018-03-11T15:06:51.849Z,80.12
2018-03-11T15:08:43.761Z,81.08
2018-03-11T15:09:43.593Z,80.22
2018-03-11T15:11:35.464Z,81.27
2018-03-11T15:12:35.412Z,80.79
2018-03-11T15:14:27.230Z,81.18
2018-03-11T15:15:27.183Z,81.27
2018-03-11T15:17:18.998Z,81.18
2018-03-11T15:18:18.880Z,80.89
2018-03-11T15:20:10.680Z,81.08
2018-03-11T15:21:10.594Z,81.18
2018-03-11T15:23:02.389Z,80.32
2018-03-11T15:24:02.306Z,81.18
2018-03-11T15:25:54.093Z,80.89
2018-03-11T15:26:54.004Z,80.89
2018-03-11T15:28:45.914Z,80.79
2018-03-11T15:29:45.874Z,81.66
2018-03-11T15:31:37.697Z,80.99
2018-03-11T15:32:37.603Z,81.27
2018-03-11T15:34:29.406Z,81.46
2018-03-11T15:35:29.317Z,82.09
2018-03-11T15:37:21.408Z,82.14
2018-03-11T15:38:21.309Z,82.29
2018-03-11T15:40:13.289Z,82.32
2018-03-11T15:41:13.198Z,82.09
2018-03-11T15:43:04.991Z,81.71
2018-03-11T15:44:04.909Z,82.42
2018-03-11T15:45:56.705Z,82.00
2018-03-11T15:46:56.632Z,81.81
2018-03-11T15:48:48.576Z,82.00
2018-03-11T15:49:48.475Z,82.67
2018-03-11T15:51:40.388Z,82.67
2018-03-11T15:52:40.207Z,82.76
2018-03-11T15:54:33.095Z,82.38
2018-03-11T15:55:32.984Z,82.57
2018-03-11T15:57:24.807Z,83.34
2018-03-11T15:58:24.696Z,82.96
2018-03-11T16:00:16.547Z,83.05
2018-03-11T16:01:16.405Z,83.44
2018-03-11T16:03:08.216Z,83.44
2018-03-11T16:04:08.134Z,83.25
2018-03-11T16:05:59.917Z,83.44
2018-03-11T16:06:59.846Z,83.49
2018-03-11T16:08:51.638Z,83.39
2018-03-11T16:09:51.584Z,83.49
2018-03-11T16:11:43.377Z,83.20
2018-03-11T16:12:43.281Z,84.06
2018-03-11T16:14:35.056Z,83.97
2018-03-11T16:15:35.178Z,84.26
2018-03-11T16:17:26.797Z,83.68
2018-03-11T16:18:26.721Z,84.35
2018-03-11T16:20:18.546Z,84.26
2018-03-11T16:21:18.483Z,84.16
2018-03-11T16:23:10.351Z,83.97
2018-03-11T16:24:10.238Z,83.97
2018-03-11T16:26:02.020Z,84.55
2018-03-11T16:27:02.148Z,84.16
2018-03-11T16:28:53.778Z,84.06
2018-03-11T16:29:53.753Z,83.97
2018-03-11T16:31:45.610Z,84.45
2018-03-11T16:32:45.500Z,84.35
2018-03-11T16:34:37.281Z,84.98
2018-03-11T16:35:37.219Z,85.17
2018-03-11T16:37:29.041Z,84.31
2018-03-11T16:38:28.990Z,85.08
2018-03-11T16:40:20.802Z,84.41
2018-03-11T16:41:20.721Z,84.69
2018-03-11T16:43:12.510Z,84.98
2018-03-11T16:44:12.455Z,85.08
2018-03-11T16:46:04.370Z,84.31
2018-03-11T16:47:04.385Z,85.55
2018-03-11T16:48:56.721Z,85.80
2018-03-11T16:49:56.148Z,86.08
2018-03-11T16:51:47.969Z,86.18
2018-03-11T16:52:47.883Z,86.28
2018-03-11T16:54:39.689Z,86.57
2018-03-11T16:55:39.615Z,86.66
2018-03-11T16:57:31.431Z,86.37
2018-03-11T16:58:31.283Z,86.47
2018-03-11T17:00:23.133Z,87.33
2018-03-11T17:01:23.054Z,86.94
2018-03-11T17:03:14.967Z,87.33
2018-03-11T17:04:14.891Z,86.66
2018-03-11T17:06:06.713Z,86.94
2018-03-11T17:07:06.682Z,87.43
2018-03-11T17:08:58.442Z,87.14
2018-03-11T17:09:58.495Z,88.00
2018-03-11T17:11:50.121Z,87.04
2018-03-11T17:12:50.107Z,87.19
2018-03-11T17:14:41.812Z,87.66
2018-03-11T17:15:41.766Z,87.95
2018-03-11T17:17:33.588Z,87.76
2018-03-11T17:18:33.459Z,87.90
2018-03-11T17:20:25.412Z,87.76
2018-03-11T17:21:25.281Z,87.52
2018-03-11T17:23:17.072Z,87.57
2018-03-11T17:24:17.000Z,87.38
2018-03-11T17:26:09.778Z,87.38
2018-03-11T17:27:09.700Z,87.95
2018-03-11T17:29:01.460Z,87.86
2018-03-11T17:30:01.401Z,87.66
2018-03-11T17:31:53.182Z,87.48
2018-03-11T17:32:53.125Z,87.38
2018-03-11T17:34:44.865Z,88.34
2018-03-11T17:35:44.797Z,88.05
2018-03-11T17:37:36.585Z,88.91
2018-03-11T17:38:36.510Z,88.72
2018-03-11T17:40:28.323Z,88.15
2018-03-11T17:41:28.258Z,88.53
2018-03-11T17:43:20.040Z,88.34
2018-03-11T17:44:19.956Z,88.91
2018-03-11T17:46:11.729Z,88.24
2018-03-11T17:47:11.657Z,88.24
2018-03-11T17:49:03.402Z,87.76
2018-03-11T17:50:03.344Z,88.24
2018-03-11T17:51:55.109Z,87.09
2018-03-11T17:52:55.038Z,87.29
2018-03-11T17:54:46.797Z,87.19
2018-03-11T17:55:46.789Z,87.00
2018-03-11T17:57:38.511Z,87.57
2018-03-11T17:58:38.434Z,87.95
2018-03-11T18:00:30.197Z,87.86
2018-03-11T18:01:30.179Z,87.48
2018-03-11T18:03:21.913Z,87.76
2018-03-11T18:04:21.834Z,87.76
2018-03-11T18:06:13.655Z,87.95
2018-03-11T18:07:13.531Z,88.81
2018-03-11T18:09:05.303Z,88.15
2018-03-11T18:10:05.226Z,88.05
2018-03-11T18:11:57.020Z,88.81
2018-03-11T18:12:56.922Z,88.01
2018-03-11T18:14:48.807Z,88.77
2018-03-11T18:15:48.755Z,88.68
2018-03-11T18:17:40.500Z,88.68
2018-03-11T18:18:40.429Z,88.58
2018-03-11T18:20:32.200Z,88.68
2018-03-11T18:21:32.143Z,88.87
2018-03-11T18:23:23.988Z,89.15
2018-03-11T18:24:23.913Z,89.01
2018-03-11T18:26:15.684Z,89.59
2018-03-11T18:27:15.602Z,89.78